createdAt,value
2023-08-29T00:00:11.152Z,100065.16
2023-08-29T00:01:11.189Z,100066.45
2023-08-29T00:02:11.146Z,100070.82
2023-08-29T00:03:11.165Z,100068.76
2023-08-29T00:04:11.228Z,100072.08
2023-08-29T00:05:11.187Z,100074.32
2023-08-29T00:06:11.153Z,100069.25
2023-08-29T00:07:11.158Z,100074.73
2023-08-29T00:08:11.154Z,100071.42
2023-08-29T00:09:11.182Z,100075.16
2023-08-29T00:10:11.156Z,100070.73
2023-08-29T00:11:11.154Z,100070.50
2023-08-29T00:12:11.157Z,100067.19
2023-08-29T00:13:11.182Z,100067.70
2023-08-29T00:14:11.156Z,100060.31
2023-08-29T00:15:11.165Z,100064.39
2023-08-29T00:16:11.196Z,100061.86
2023-08-29T00:17:11.160Z,100062.17
2023-08-29T00:18:11.173Z,100062.57
2023-08-29T00:19:11.349Z,100063.93
2023-08-29T00:20:11.163Z,100062.41
2023-08-29T00:21:11.061Z,100058.41
2023-08-29T00:22:11.067Z,100060.56
2023-08-29T00:23:11.058Z,100055.66
2023-08-29T00:24:11.066Z,100054.93
2023-08-29T00:25:11.071Z,100053.02
2023-08-29T00:26:11.074Z,100050.40
2023-08-29T00:27:11.064Z,100049.82
2023-08-29T00:28:11.069Z,100048.69
2023-08-29T00:29:11.070Z,100046.04
2023-08-29T00:30:11.069Z,100044.48
2023-08-29T00:31:11.078Z,100045.49
2023-08-29T00:32:11.071Z,100047.63
2023-08-29T00:33:11.071Z,100049.35
2023-08-29T00:34:11.073Z,100045.01
2023-08-29T00:35:11.069Z,100046.33
2023-08-29T00:36:11.077Z,100051.61
2023-08-29T00:37:11.083Z,100051.90
2023-08-29T00:38:12.074Z,100051.30
2023-08-29T00:39:11.075Z,100051.39
2023-08-29T00:40:11.077Z,100052.98
2023-08-29T00:41:11.072Z,100051.81
2023-08-29T00:42:11.071Z,100048.10
2023-08-29T00:43:11.084Z,100045.27
2023-08-29T00:44:11.074Z,100043.18
2023-08-29T00:45:11.074Z,100041.25
2023-08-29T00:46:11.169Z,100045.69
2023-08-29T00:47:11.076Z,100042.47
2023-08-29T00:48:11.309Z,100038.12
2023-08-29T00:49:11.079Z,100037.78
2023-08-29T00:50:11.078Z,100036.63
2023-08-29T00:51:11.082Z,100038.37
2023-08-29T00:52:11.081Z,100037.82
2023-08-29T00:53:11.094Z,100037.36
2023-08-29T00:54:11.087Z,100039.70
2023-08-29T00:55:11.086Z,100035.75
2023-08-29T00:56:11.084Z,100035.87
2023-08-29T00:57:11.084Z,100035.17
2023-08-29T00:58:11.086Z,100039.60
2023-08-29T00:59:11.083Z,100040.65
2023-08-29T01:00:11.096Z,100040.34
2023-08-29T01:01:11.099Z,100045.39
2023-08-29T01:02:11.087Z,100042.14
2023-08-29T01:03:11.163Z,100044.43
2023-08-29T01:04:11.106Z,100042.12
2023-08-29T01:05:11.090Z,100040.62
2023-08-29T01:06:11.104Z,100043.03
2023-08-29T01:07:11.085Z,100040.07
2023-08-29T01:08:11.103Z,100043.12
2023-08-29T01:09:11.109Z,100042.53
2023-08-29T01:10:11.090Z,100046.11
2023-08-29T01:11:15.090Z,100048.76
2023-08-29T01:12:17.102Z,100048.28
2023-08-29T01:13:21.095Z,100047.20
2023-08-29T01:14:21.093Z,100045.48
2023-08-29T01:15:19.089Z,100049.55
2023-08-29T01:16:11.129Z,100048.56
2023-08-29T01:17:19.104Z,100043.46
2023-08-29T01:18:12.142Z,100042.18
2023-08-29T01:19:15.105Z,100044.00
2023-08-29T01:20:11.093Z,100045.22
2023-08-29T01:21:19.119Z,100041.07
2023-08-29T01:22:19.095Z,100039.77
2023-08-29T01:23:19.109Z,100040.96
2023-08-29T01:24:17.110Z,100039.22
2023-08-29T01:25:19.096Z,100039.30
2023-08-29T01:26:15.408Z,100040.68
2023-08-29T01:27:11.104Z,100041.87
2023-08-29T01:28:11.108Z,100040.00
2023-08-29T01:29:11.101Z,100041.86
2023-08-29T01:30:11.111Z,100035.05
2023-08-29T01:31:11.156Z,100034.65
2023-08-29T01:32:11.108Z,100035.89
2023-08-29T01:33:11.148Z,100031.42
2023-08-29T01:34:11.114Z,100033.45
2023-08-29T01:35:11.104Z,100031.37
2023-08-29T01:36:11.114Z,100033.68
2023-08-29T01:37:11.116Z,100028.59
2023-08-29T01:38:11.102Z,100028.25
2023-08-29T01:39:11.110Z,100027.18
2023-08-29T01:40:11.128Z,100026.96
2023-08-29T01:41:11.118Z,100025.93
2023-08-29T01:42:11.116Z,100024.15
2023-08-29T01:43:11.113Z,100025.13
2023-08-29T01:44:11.108Z,100022.29
2023-08-29T01:45:11.160Z,100022.02
2023-08-29T01:46:11.148Z,100024.21
2023-08-29T01:47:11.118Z,100021.43
2023-08-29T01:48:13.190Z,100022.98
2023-08-29T01:49:11.114Z,100021.72
2023-08-29T01:50:11.109Z,100020.61
2023-08-29T01:51:11.114Z,100018.93
2023-08-29T01:52:11.119Z,100017.92
2023-08-29T01:53:11.108Z,100018.07
2023-08-29T01:54:11.114Z,100016.63
2023-08-29T01:55:11.120Z,100016.57
2023-08-29T01:56:12.113Z,100016.76
2023-08-29T01:57:11.153Z,100016.56
2023-08-29T01:58:11.132Z,100014.98
2023-08-29T01:59:11.117Z,100017.14
2023-08-29T02:00:11.138Z,100018.65
2023-08-29T02:02:14.027Z,100016.76
2023-08-29T02:03:11.123Z,100009.30
2023-08-29T02:04:11.154Z,100011.47
2023-08-29T02:05:11.116Z,100007.41
2023-08-29T02:06:11.132Z,100007.63
2023-08-29T02:07:11.121Z,100004.18
2023-08-29T02:08:11.135Z,100004.67
2023-08-29T02:09:11.127Z,100003.25
2023-08-29T02:10:11.124Z,100002.98
2023-08-29T02:11:11.119Z,100000.48
2023-08-29T02:12:11.125Z,99998.09
2023-08-29T02:13:11.133Z,99997.20
2023-08-29T02:14:11.133Z,99995.97
2023-08-29T02:15:11.132Z,99995.85
2023-08-29T02:16:11.148Z,99994.85
2023-08-29T02:17:11.125Z,99991.84
2023-08-29T02:18:11.149Z,99992.58
2023-08-29T02:19:11.132Z,99991.83
2023-08-29T02:20:11.152Z,99992.62
2023-08-29T02:21:11.141Z,99992.01
2023-08-29T02:22:11.131Z,99990.01
2023-08-29T02:23:11.139Z,99989.10
2023-08-29T02:24:11.133Z,99986.69
2023-08-29T02:25:11.128Z,99990.04
2023-08-29T02:26:11.129Z,99989.20
2023-08-29T02:27:11.133Z,99990.57
2023-08-29T02:28:11.132Z,99988.49
2023-08-29T02:29:11.128Z,99984.93
2023-08-29T02:30:11.136Z,99986.61
2023-08-29T02:31:11.228Z,99984.26
2023-08-29T02:32:11.132Z,99985.29
2023-08-29T02:33:11.138Z,99985.95
2023-08-29T02:34:11.144Z,99982.57
2023-08-29T02:35:11.162Z,99984.45
2023-08-29T02:36:11.140Z,99982.93
2023-08-29T02:37:11.144Z,99983.76
2023-08-29T02:38:11.364Z,99985.26
2023-08-29T02:39:11.142Z,99987.89
2023-08-29T02:40:12.144Z,99981.08
2023-08-29T02:41:11.140Z,99983.08
2023-08-29T02:42:11.138Z,99981.93
2023-08-29T02:43:11.147Z,99981.18
2023-08-29T02:44:11.150Z,99978.30
2023-08-29T02:45:11.144Z,99979.69
2023-08-29T02:46:11.216Z,99977.81
2023-08-29T02:47:11.142Z,99981.38
2023-08-29T02:48:11.196Z,99979.27
2023-08-29T02:49:11.160Z,99975.43
2023-08-29T02:50:11.144Z,99972.20
2023-08-29T02:51:11.140Z,99969.98
2023-08-29T02:52:11.152Z,99968.62
2023-08-29T02:53:11.152Z,99969.46
2023-08-29T02:54:11.142Z,99965.86
2023-08-29T02:55:11.157Z,99965.62
2023-08-29T02:56:11.149Z,99964.49
2023-08-29T02:57:11.150Z,99967.00
2023-08-29T02:58:11.152Z,99961.33
2023-08-29T02:59:11.154Z,99962.18
2023-08-29T03:00:11.148Z,99958.53
2023-08-29T03:01:14.309Z,99959.02
2023-08-29T03:02:11.160Z,99965.07
2023-08-29T03:03:11.195Z,99957.00
2023-08-29T03:04:11.205Z,99961.09
2023-08-29T03:05:11.163Z,99963.72
2023-08-29T03:06:11.152Z,99963.34
2023-08-29T03:07:11.153Z,99959.06
2023-08-29T03:08:11.155Z,99962.23
2023-08-29T03:09:11.165Z,99959.39
2023-08-29T03:10:11.156Z,99957.12
2023-08-29T03:11:11.162Z,99955.84
2023-08-29T03:12:11.156Z,99954.32
2023-08-29T03:13:11.176Z,99950.13
2023-08-29T03:14:11.169Z,99950.37
2023-08-29T03:15:11.156Z,99955.99
2023-08-29T03:17:11.163Z,99949.73
2023-08-29T03:18:11.318Z,99950.05
2023-08-29T03:19:11.162Z,99948.46
2023-08-29T03:20:11.165Z,99946.33
2023-08-29T03:21:11.062Z,99944.46
2023-08-29T03:22:11.061Z,99946.96
2023-08-29T03:23:11.067Z,99946.84
2023-08-29T03:24:12.066Z,99945.29
2023-08-29T03:25:13.066Z,99945.84
2023-08-29T03:26:11.791Z,99942.52
2023-08-29T03:27:11.068Z,99944.23
2023-08-29T03:28:11.060Z,99939.91
2023-08-29T03:29:11.074Z,99937.23
2023-08-29T03:30:11.072Z,99939.11
2023-08-29T03:31:13.071Z,99937.82
2023-08-29T03:32:11.098Z,99938.43
2023-08-29T03:33:11.160Z,99937.60
2023-08-29T03:34:11.067Z,99939.36
2023-08-29T03:35:11.080Z,99939.13
2023-08-29T03:36:11.074Z,99932.55
2023-08-29T03:37:11.070Z,99928.54
2023-08-29T03:38:11.115Z,99928.11
2023-08-29T03:39:11.071Z,99925.35
2023-08-29T03:40:11.074Z,99924.52
2023-08-29T03:41:11.077Z,99930.89
2023-08-29T03:42:11.074Z,99935.52
2023-08-29T03:43:11.072Z,99940.43
2023-08-29T03:44:11.085Z,99940.19
2023-08-29T03:45:11.081Z,99938.82
2023-08-29T03:46:11.147Z,99939.43
2023-08-29T03:47:11.073Z,99939.82
2023-08-29T03:48:19.549Z,99935.42
2023-08-29T03:49:13.444Z,99931.87
2023-08-29T03:50:11.079Z,99930.04
2023-08-29T03:51:13.090Z,99934.65
2023-08-29T03:52:11.081Z,99935.52
2023-08-29T03:53:11.075Z,99934.62
2023-08-29T03:54:11.084Z,99934.45
2023-08-29T03:55:11.081Z,99932.98
2023-08-29T03:56:11.091Z,99927.16
2023-08-29T03:57:11.095Z,99928.15
2023-08-29T03:58:11.084Z,99929.74
2023-08-29T03:59:11.086Z,99929.07
2023-08-29T04:00:14.096Z,99930.43
2023-08-29T04:01:11.098Z,99927.72
2023-08-29T04:02:11.100Z,99924.58
2023-08-29T04:03:11.216Z,99924.66
2023-08-29T04:04:11.213Z,99923.32
2023-08-29T04:05:14.292Z,99921.68
2023-08-29T04:06:11.089Z,99921.01
2023-08-29T04:07:11.116Z,99920.29
2023-08-29T04:08:11.090Z,99917.40
2023-08-29T04:09:12.093Z,99916.21
2023-08-29T04:10:11.099Z,99915.28
2023-08-29T04:11:11.091Z,99919.91
2023-08-29T04:12:12.118Z,99918.73
2023-08-29T04:13:11.097Z,99919.38
2023-08-29T04:14:11.090Z,99918.61
2023-08-29T04:15:11.094Z,99918.30
2023-08-29T04:16:11.105Z,99916.02
2023-08-29T04:17:11.091Z,99916.28
2023-08-29T04:18:11.112Z,99911.89
2023-08-29T04:19:11.104Z,99913.57
2023-08-29T04:20:13.096Z,99908.45
2023-08-29T04:21:11.098Z,99908.36
2023-08-29T04:22:11.104Z,99910.09
2023-08-29T04:23:11.096Z,99905.78
2023-08-29T04:24:11.112Z,99906.85
2023-08-29T04:25:11.104Z,99906.91
2023-08-29T04:26:11.101Z,99904.88
2023-08-29T04:27:11.100Z,99905.95
2023-08-29T04:28:11.104Z,99904.15
2023-08-29T04:29:11.123Z,99905.12
2023-08-29T04:30:11.123Z,99901.75
2023-08-29T04:31:13.221Z,99901.17
2023-08-29T04:32:11.105Z,99901.76
2023-08-29T04:33:11.139Z,99902.05
2023-08-29T04:34:11.106Z,99900.82
2023-08-29T04:35:13.105Z,99902.62
2023-08-29T04:36:11.115Z,99897.56
2023-08-29T04:37:11.108Z,99899.04
2023-08-29T04:38:11.104Z,99897.28
2023-08-29T04:39:11.115Z,99896.02
2023-08-29T04:40:11.109Z,99897.89
2023-08-29T04:41:11.111Z,99898.89
2023-08-29T04:42:11.107Z,99897.50
2023-08-29T04:43:11.129Z,99897.11
2023-08-29T04:44:11.113Z,99894.50
2023-08-29T04:45:11.106Z,99893.13
2023-08-29T04:46:12.163Z,99896.48
2023-08-29T04:47:11.115Z,99897.96
2023-08-29T04:48:11.266Z,99891.88
2023-08-29T04:49:11.111Z,99895.52
2023-08-29T04:50:11.125Z,99894.58
2023-08-29T04:51:11.107Z,99895.98
2023-08-29T04:52:11.114Z,99893.06
2023-08-29T04:53:11.124Z,99895.55
2023-08-29T04:54:11.115Z,99893.82
2023-08-29T04:55:11.200Z,99893.79
2023-08-29T04:56:11.141Z,99891.07
2023-08-29T04:57:11.133Z,99888.64
2023-08-29T04:58:11.130Z,99889.92
2023-08-29T04:59:11.116Z,99888.64
2023-08-29T05:00:11.116Z,99888.34
2023-08-29T05:01:11.172Z,99887.93
2023-08-29T05:02:11.122Z,99888.67
2023-08-29T05:03:11.271Z,99888.67
2023-08-29T05:04:11.119Z,99890.53
2023-08-29T05:05:11.126Z,99888.88
2023-08-29T05:06:11.117Z,99892.45
2023-08-29T05:07:11.154Z,99890.86
2023-08-29T05:08:11.121Z,99892.67
2023-08-29T05:09:14.125Z,99892.68
2023-08-29T05:10:11.147Z,99890.69
2023-08-29T05:11:11.132Z,99898.53
2023-08-29T05:12:11.126Z,99897.79
2023-08-29T05:13:11.123Z,99896.99
2023-08-29T05:14:11.135Z,99898.85
2023-08-29T05:15:11.128Z,99902.09
2023-08-29T05:16:11.208Z,99899.75
2023-08-29T05:17:11.133Z,99902.00
2023-08-29T05:18:11.286Z,99899.95
2023-08-29T05:19:12.128Z,99899.89
2023-08-29T05:20:14.135Z,99897.56
2023-08-29T05:21:11.135Z,99897.01
2023-08-29T05:22:11.127Z,99897.50
2023-08-29T05:23:11.129Z,99895.86
2023-08-29T05:24:11.131Z,99895.77
2023-08-29T05:25:11.139Z,99895.96
2023-08-29T05:26:13.391Z,99898.27
2023-08-29T05:27:11.148Z,99892.98
2023-08-29T05:28:11.129Z,99891.64
2023-08-29T05:29:11.144Z,99891.97
2023-08-29T05:30:11.131Z,99897.36
2023-08-29T05:31:11.178Z,99895.29
2023-08-29T05:32:11.147Z,99897.26
2023-08-29T05:33:11.169Z,99899.20
2023-08-29T05:34:11.134Z,99903.20
2023-08-29T05:35:11.144Z,99902.59
2023-08-29T05:36:11.138Z,99897.75
2023-08-29T05:37:11.141Z,99897.31
2023-08-29T05:38:11.144Z,99897.07
2023-08-29T05:39:11.148Z,99895.79
2023-08-29T05:40:11.147Z,99895.25
2023-08-29T05:41:11.141Z,99896.35
2023-08-29T05:42:11.143Z,99894.59
2023-08-29T05:43:11.140Z,99891.05
2023-08-29T05:44:11.151Z,99891.16
2023-08-29T05:45:11.161Z,99888.50
2023-08-29T05:46:11.163Z,99890.48
2023-08-29T05:47:11.152Z,99887.06
2023-08-29T05:48:11.171Z,99891.85
2023-08-29T05:49:11.143Z,99893.33
2023-08-29T05:50:11.150Z,99896.24
2023-08-29T05:51:11.142Z,99896.95
2023-08-29T05:52:11.146Z,99893.06
2023-08-29T05:53:11.156Z,99892.91
2023-08-29T05:54:11.140Z,99893.41
2023-08-29T05:55:11.145Z,99892.20
2023-08-29T05:56:11.167Z,99890.73
2023-08-29T05:57:11.152Z,99890.56
2023-08-29T05:58:11.147Z,99889.86
2023-08-29T05:59:11.156Z,99891.01
2023-08-29T06:00:11.152Z,99889.08
2023-08-29T06:01:11.192Z,99890.61
2023-08-29T06:02:11.157Z,99883.48
2023-08-29T06:03:11.181Z,99890.92
2023-08-29T06:04:11.152Z,99887.95
2023-08-29T06:05:11.159Z,99890.38
2023-08-29T06:06:11.163Z,99888.84
2023-08-29T06:07:11.162Z,99891.03
2023-08-29T06:08:19.214Z,99892.68
2023-08-29T06:09:13.549Z,99895.46
2023-08-29T06:10:11.156Z,99893.42
2023-08-29T06:11:11.165Z,99894.04
2023-08-29T06:12:11.157Z,99890.60
2023-08-29T06:13:11.153Z,99892.29
2023-08-29T06:14:11.167Z,99895.74
2023-08-29T06:15:11.159Z,99893.48
2023-08-29T06:16:11.188Z,99888.16
2023-08-29T06:17:11.162Z,99887.67
2023-08-29T06:18:11.320Z,99886.33
2023-08-29T06:19:11.171Z,99885.84
2023-08-29T06:20:11.166Z,99880.09
2023-08-29T06:21:11.068Z,99884.25
2023-08-29T06:22:12.453Z,99883.02
2023-08-29T06:23:11.074Z,99883.06
2023-08-29T06:24:11.088Z,99881.05
2023-08-29T06:25:11.065Z,99880.96
2023-08-29T06:26:11.072Z,99880.41
2023-08-29T06:27:11.063Z,99881.12
2023-08-29T06:28:11.077Z,99879.28
2023-08-29T06:29:11.080Z,99884.75
2023-08-29T06:30:12.073Z,99881.17
2023-08-29T06:31:11.113Z,99881.43
2023-08-29T06:32:11.080Z,99883.70
2023-08-29T06:33:11.065Z,99884.33
2023-08-29T06:34:11.064Z,99881.51
2023-08-29T06:35:12.078Z,99880.72
2023-08-29T06:36:11.078Z,99880.36
2023-08-29T06:37:11.070Z,99875.40
2023-08-29T06:38:11.077Z,99879.72
2023-08-29T06:39:11.073Z,99879.59
2023-08-29T06:40:11.069Z,99871.82
2023-08-29T06:41:11.079Z,99876.46
2023-08-29T06:42:11.072Z,99880.66
2023-08-29T06:43:11.074Z,99882.92
2023-08-29T06:44:11.084Z,99881.15
2023-08-29T06:45:11.074Z,99877.99
2023-08-29T06:46:11.119Z,99881.21
2023-08-29T06:47:11.087Z,99882.62
2023-08-29T06:48:11.544Z,99877.38
2023-08-29T06:49:11.083Z,99881.86
2023-08-29T06:50:11.087Z,99881.17
2023-08-29T06:51:11.074Z,99879.48
2023-08-29T06:52:11.081Z,99882.00
2023-08-29T06:53:11.079Z,99881.55
2023-08-29T06:54:11.075Z,99878.62
2023-08-29T06:55:11.080Z,99878.39
2023-08-29T06:56:11.083Z,99877.46
2023-08-29T06:57:11.082Z,99874.10
2023-08-29T06:58:11.083Z,99878.36
2023-08-29T06:59:11.085Z,99881.42
2023-08-29T07:00:11.080Z,99881.48
2023-08-29T07:01:11.173Z,99882.34
2023-08-29T07:02:11.087Z,99882.67
2023-08-29T07:03:11.134Z,99884.27
2023-08-29T07:04:11.082Z,99884.26
2023-08-29T07:05:11.108Z,99887.12
2023-08-29T07:06:11.087Z,99890.21
2023-08-29T07:07:11.086Z,99887.45
2023-08-29T07:08:11.095Z,99888.35
2023-08-29T07:09:11.088Z,99888.56
2023-08-29T07:10:11.093Z,99886.36
2023-08-29T07:11:11.093Z,99885.58
2023-08-29T07:12:11.085Z,99882.60
2023-08-29T07:13:11.100Z,99886.78
2023-08-29T07:14:11.098Z,99885.29
2023-08-29T07:15:11.085Z,99883.09
2023-08-29T07:16:12.135Z,99884.70
2023-08-29T07:17:11.318Z,99879.78
2023-08-29T07:18:11.228Z,99881.53
2023-08-29T07:19:11.095Z,99883.83
2023-08-29T07:20:13.114Z,99882.82
2023-08-29T07:21:11.091Z,99880.66
2023-08-29T07:22:23.320Z,99881.16
2023-08-29T07:23:13.434Z,99879.86
2023-08-29T07:24:11.595Z,99879.95
2023-08-29T07:25:11.111Z,99881.34
2023-08-29T07:26:11.106Z,99880.36
2023-08-29T07:27:11.110Z,99880.61
2023-08-29T07:28:11.102Z,99884.38
2023-08-29T07:29:11.099Z,99880.46
2023-08-29T07:30:11.104Z,99876.43
2023-08-29T07:31:11.147Z,99879.67
2023-08-29T07:32:11.131Z,99879.20
2023-08-29T07:33:11.122Z,99880.72
2023-08-29T07:34:11.099Z,99881.13
2023-08-29T07:35:11.117Z,99883.19
2023-08-29T07:36:11.114Z,99882.73
2023-08-29T07:37:11.103Z,99883.50
2023-08-29T07:38:11.123Z,99883.91
2023-08-29T07:39:11.111Z,99883.75
2023-08-29T07:40:11.107Z,99884.37
2023-08-29T07:41:11.108Z,99883.40
2023-08-29T07:42:11.121Z,99884.52
2023-08-29T07:43:11.112Z,99881.84
2023-08-29T07:44:11.108Z,99882.58
2023-08-29T07:45:11.112Z,99879.22
2023-08-29T07:46:11.123Z,99879.78
2023-08-29T07:47:15.476Z,99879.94
2023-08-29T07:48:13.472Z,99878.17
2023-08-29T07:49:15.111Z,99878.59
2023-08-29T07:50:11.124Z,99877.03
2023-08-29T07:51:11.115Z,99869.99
2023-08-29T07:52:11.150Z,99873.89
2023-08-29T07:53:11.110Z,99874.10
2023-08-29T07:54:11.140Z,99873.12
2023-08-29T07:55:11.134Z,99868.10
2023-08-29T07:56:11.161Z,99864.54
2023-08-29T07:57:11.130Z,99862.12
2023-08-29T07:58:11.119Z,99863.30
2023-08-29T07:59:11.111Z,99857.23
2023-08-29T08:00:13.134Z,99859.51
2023-08-29T08:01:11.116Z,99852.95
2023-08-29T08:02:11.115Z,99852.67
2023-08-29T08:03:11.130Z,99850.49
2023-08-29T08:04:11.159Z,99848.35
2023-08-29T08:05:11.117Z,99847.43
2023-08-29T08:06:11.132Z,99847.05
2023-08-29T08:07:11.125Z,99845.05
2023-08-29T08:08:11.119Z,99844.18
2023-08-29T08:09:11.125Z,99842.75
2023-08-29T08:10:11.126Z,99845.52
2023-08-29T08:11:11.129Z,99846.45
2023-08-29T08:12:11.120Z,99850.67
2023-08-29T08:13:11.130Z,99849.64
2023-08-29T08:14:11.124Z,99849.61
2023-08-29T08:15:11.127Z,99853.96
2023-08-29T08:16:11.148Z,99851.30
2023-08-29T08:17:11.124Z,99859.02
2023-08-29T08:18:11.213Z,99857.57
2023-08-29T08:19:12.138Z,99859.39
2023-08-29T08:20:12.127Z,99861.37
2023-08-29T08:21:11.134Z,99863.19
2023-08-29T08:22:11.130Z,99858.04
2023-08-29T08:23:11.135Z,99861.68
2023-08-29T08:24:12.131Z,99858.39
2023-08-29T08:25:11.213Z,99857.37
2023-08-29T08:26:11.132Z,99860.68
2023-08-29T08:27:11.134Z,99852.41
2023-08-29T08:28:11.147Z,99854.22
2023-08-29T08:29:11.226Z,99854.91
2023-08-29T08:30:13.136Z,99851.77
2023-08-29T08:31:11.145Z,99850.62
2023-08-29T08:32:11.136Z,99846.57
2023-08-29T08:33:11.170Z,99844.72
2023-08-29T08:34:11.147Z,99843.11
2023-08-29T08:35:11.135Z,99841.82
2023-08-29T08:36:11.166Z,99839.75
2023-08-29T08:37:11.154Z,99835.87
2023-08-29T08:38:12.146Z,99837.08
2023-08-29T08:39:11.143Z,99839.71
2023-08-29T08:40:15.152Z,99835.57
2023-08-29T08:41:12.143Z,99836.84
2023-08-29T08:42:11.146Z,99837.03
2023-08-29T08:43:11.165Z,99836.46
2023-08-29T08:44:12.187Z,99839.48
2023-08-29T08:45:11.154Z,99836.77
2023-08-29T08:46:11.167Z,99835.74
2023-08-29T08:47:11.145Z,99841.66
2023-08-29T08:48:11.210Z,99836.98
2023-08-29T08:49:11.149Z,99840.60
2023-08-29T08:50:13.149Z,99840.60
2023-08-29T08:51:11.151Z,99838.20
2023-08-29T08:52:12.175Z,99842.93
2023-08-29T08:53:11.150Z,99837.41
2023-08-29T08:54:11.151Z,99839.38
2023-08-29T08:55:11.151Z,99835.88
2023-08-29T08:56:11.158Z,99835.93
2023-08-29T08:57:12.861Z,99836.12
2023-08-29T08:58:11.149Z,99833.07
2023-08-29T08:59:11.163Z,99831.22
2023-08-29T09:00:11.151Z,99832.39
2023-08-29T09:01:11.196Z,99829.45
2023-08-29T09:02:13.154Z,99825.14
2023-08-29T09:03:11.183Z,99828.60
2023-08-29T09:04:11.236Z,99830.31
2023-08-29T09:05:11.275Z,99831.41
2023-08-29T09:06:14.021Z,99826.57
2023-08-29T09:07:11.157Z,99822.64
2023-08-29T09:08:11.196Z,99829.34
2023-08-29T09:09:19.165Z,99824.61
2023-08-29T09:10:13.182Z,99825.95
2023-08-29T09:11:11.171Z,99828.98
2023-08-29T09:12:11.166Z,99822.91
2023-08-29T09:13:16.161Z,99827.06
2023-08-29T09:14:13.022Z,99825.61
2023-08-29T09:15:11.167Z,99827.51
2023-08-29T09:16:11.192Z,99827.78
2023-08-29T09:17:11.166Z,99827.50
2023-08-29T09:18:11.252Z,99826.74
2023-08-29T09:19:11.159Z,99824.87
2023-08-29T09:20:11.167Z,99822.38
2023-08-29T09:21:17.063Z,99821.74
2023-08-29T09:22:11.063Z,99820.34
2023-08-29T09:23:19.066Z,99823.20
2023-08-29T09:24:14.116Z,99820.18
2023-08-29T09:25:11.064Z,99818.65
2023-08-29T09:26:12.066Z,99819.67
2023-08-29T09:27:11.083Z,99816.95
2023-08-29T09:28:13.161Z,99815.64
2023-08-29T09:29:19.070Z,99815.98
2023-08-29T09:30:13.070Z,99813.53
2023-08-29T09:31:13.106Z,99811.68
2023-08-29T09:32:15.080Z,99811.01
2023-08-29T09:33:11.133Z,99809.04
2023-08-29T09:34:11.072Z,99808.91
2023-08-29T09:35:16.084Z,99809.15
2023-08-29T09:36:11.073Z,99810.38
2023-08-29T09:37:11.083Z,99810.12
2023-08-29T09:38:11.072Z,99813.25
2023-08-29T09:39:12.074Z,99811.09
2023-08-29T09:40:22.239Z,99815.09
2023-08-29T09:41:17.660Z,99810.93
2023-08-29T09:42:11.075Z,99816.84
2023-08-29T09:43:11.095Z,99816.92
2023-08-29T09:44:15.077Z,99813.67
2023-08-29T09:45:16.084Z,99813.25
2023-08-29T09:46:11.099Z,99808.98
2023-08-29T09:47:11.084Z,99808.92
2023-08-29T09:48:11.450Z,99811.11
2023-08-29T09:49:11.073Z,99813.41
2023-08-29T09:50:11.086Z,99810.19
2023-08-29T09:51:11.079Z,99803.51
2023-08-29T09:52:11.101Z,99807.08
2023-08-29T09:53:18.095Z,99801.99
2023-08-29T09:54:11.085Z,99804.87
2023-08-29T09:55:12.086Z,99802.88
2023-08-29T09:56:15.080Z,99803.97
2023-08-29T09:57:11.091Z,99795.69
2023-08-29T09:58:11.079Z,99797.31
2023-08-29T09:59:12.084Z,99795.84
2023-08-29T10:00:13.095Z,99792.41
2023-08-29T10:01:11.152Z,99791.57
2023-08-29T10:02:11.145Z,99785.39
2023-08-29T10:03:11.170Z,99789.00
2023-08-29T10:04:15.086Z,99786.51
2023-08-29T10:05:14.087Z,99784.33
2023-08-29T10:06:13.084Z,99786.16
2023-08-29T10:07:13.087Z,99783.98
2023-08-29T10:08:21.099Z,99783.02
2023-08-29T10:09:11.100Z,99785.35
2023-08-29T10:10:11.097Z,99785.24
2023-08-29T10:11:11.093Z,99782.62
2023-08-29T10:12:11.096Z,99782.95
2023-08-29T10:13:11.096Z,99787.40
2023-08-29T10:14:11.135Z,99789.12
2023-08-29T10:15:11.093Z,99784.91
2023-08-29T10:16:11.098Z,99786.90
2023-08-29T10:17:21.172Z,99781.74
2023-08-29T10:18:13.221Z,99781.69
2023-08-29T10:19:12.177Z,99776.04
2023-08-29T10:20:14.092Z,99775.12
2023-08-29T10:21:11.098Z,99774.97
2023-08-29T10:22:13.103Z,99774.10
2023-08-29T10:23:11.110Z,99774.07
2023-08-29T10:24:12.111Z,99774.62
2023-08-29T10:25:11.099Z,99773.23
2023-08-29T10:26:11.112Z,99774.30
2023-08-29T10:27:11.101Z,99777.30
2023-08-29T10:28:11.114Z,99771.67
2023-08-29T10:29:11.106Z,99767.16
2023-08-29T10:30:11.102Z,99773.97
2023-08-29T10:31:11.123Z,99768.07
2023-08-29T10:32:11.115Z,99762.25
2023-08-29T10:33:11.156Z,99758.30
2023-08-29T10:34:11.102Z,99760.21
2023-08-29T10:35:19.112Z,99754.04
2023-08-29T10:36:13.107Z,99751.96
2023-08-29T10:37:19.119Z,99751.87
2023-08-29T10:38:14.899Z,99751.81
2023-08-29T10:39:15.115Z,99750.20
2023-08-29T10:40:15.110Z,99750.86
2023-08-29T10:41:11.106Z,99746.73
2023-08-29T10:42:13.112Z,99746.79
2023-08-29T10:43:20.136Z,99750.19
2023-08-29T10:44:19.111Z,99747.34
2023-08-29T10:45:13.112Z,99745.01
2023-08-29T10:46:16.165Z,99746.38
2023-08-29T10:47:19.118Z,99746.11
2023-08-29T10:48:11.397Z,99748.21
2023-08-29T10:49:13.111Z,99748.66
2023-08-29T10:50:21.111Z,99746.02
2023-08-29T10:51:14.568Z,99745.89
2023-08-29T10:52:11.113Z,99747.51
2023-08-29T10:53:17.139Z,99746.39
2023-08-29T10:54:13.115Z,99745.46
2023-08-29T10:55:23.125Z,99737.20
2023-08-29T10:56:11.133Z,99742.86
2023-08-29T10:57:19.112Z,99739.91
2023-08-29T10:58:19.117Z,99740.67
2023-08-29T10:59:19.130Z,99742.24
2023-08-29T11:00:18.123Z,99737.46
2023-08-29T11:01:19.121Z,99740.25
2023-08-29T11:02:19.117Z,99739.68
2023-08-29T11:03:11.227Z,99738.69
2023-08-29T11:04:15.161Z,99736.77
2023-08-29T11:05:13.122Z,99734.45
2023-08-29T11:06:11.174Z,99737.27
2023-08-29T11:07:15.123Z,99733.09
2023-08-29T11:08:19.119Z,99740.64
2023-08-29T11:09:17.132Z,99734.32
2023-08-29T11:10:18.132Z,99732.49
2023-08-29T11:11:19.130Z,99732.83
2023-08-29T11:12:11.133Z,99735.94
2023-08-29T11:13:11.122Z,99734.68
2023-08-29T11:14:12.129Z,99730.51
2023-08-29T11:15:11.956Z,99730.06
2023-08-29T11:16:11.157Z,99732.04
2023-08-29T11:17:13.200Z,99730.72
2023-08-29T11:18:19.129Z,99730.36
2023-08-29T11:19:15.160Z,99731.59
2023-08-29T11:20:12.139Z,99725.42
2023-08-29T11:21:11.153Z,99729.77
2023-08-29T11:22:11.137Z,99726.12
2023-08-29T11:23:12.131Z,99728.93
2023-08-29T11:24:16.850Z,99724.52
2023-08-29T11:25:11.132Z,99721.82
2023-08-29T11:26:11.158Z,99723.79
2023-08-29T11:27:15.137Z,99726.00
2023-08-29T11:28:11.146Z,99726.39
2023-08-29T11:29:12.145Z,99730.12
2023-08-29T11:30:31.347Z,99726.21
2023-08-29T11:31:13.568Z,99720.49
2023-08-29T11:32:11.138Z,99723.07
2023-08-29T11:33:11.139Z,99723.32
2023-08-29T11:34:17.144Z,99716.55
2023-08-29T11:35:13.141Z,99719.90
2023-08-29T11:36:11.157Z,99721.34
2023-08-29T11:37:12.144Z,99716.28
2023-08-29T11:38:11.142Z,99720.80
2023-08-29T11:39:11.146Z,99720.11
2023-08-29T11:40:17.605Z,99716.27
2023-08-29T11:41:25.997Z,99714.16
2023-08-29T11:42:43.618Z,99713.73